sensor_id;sensor_type;location;lat;lon;timestamp;P1;durP1;ratioP1;P2;durP2;ratioP2
36351;SDS011;22382;44.768;17.206;2023-04-24T00:02:26;11.15;;;7.60;;
36351;SDS011;22382;44.768;17.206;2023-04-24T00:04:54;12.52;;;8.05;;
36351;SDS011;22382;44.768;17.206;2023-04-24T00:07:21;14.38;;;8.55;;
36351;SDS011;22382;44.768;17.206;2023-04-24T00:09:48;12.05;;;7.85;;
36351;SDS011;22382;44.768;17.206;2023-04-24T00:12:16;11.38;;;7.28;;
36351;SDS011;22382;44.768;17.206;2023-04-24T00:14:43;12.95;;;6.95;;
36351;SDS011;22382;44.768;17.206;2023-04-24T00:17:11;12.07;;;7.20;;
36351;SDS011;22382;44.768;17.206;2023-04-24T00:19:38;12.05;;;7.15;;
36351;SDS011;22382;44.768;17.206;2023-04-24T00:22:06;11.55;;;7.20;;
36351;SDS011;22382;44.768;17.206;2023-04-24T00:24:33;8.95;;;5.78;;
36351;SDS011;22382;44.768;17.206;2023-04-24T00:27:00;10.52;;;6.03;;
36351;SDS011;22382;44.768;17.206;2023-04-24T00:29:28;8.98;;;6.40;;
36351;SDS011;22382;44.768;17.206;2023-04-24T00:31:56;8.95;;;6.22;;
36351;SDS011;22382;44.768;17.206;2023-04-24T00:34:23;8.80;;;6.88;;
36351;SDS011;22382;44.768;17.206;2023-04-24T00:36:50;12.85;;;8.15;;
36351;SDS011;22382;44.768;17.206;2023-04-24T00:39:19;13.13;;;7.43;;
36351;SDS011;22382;44.768;17.206;2023-04-24T00:41:46;12.30;;;7.63;;
36351;SDS011;22382;44.768;17.206;2023-04-24T00:44:14;8.45;;;5.85;;
36351;SDS011;22382;44.768;17.206;2023-04-24T00:46:42;10.30;;;6.20;;
36351;SDS011;22382;44.768;17.206;2023-04-24T00:49:09;10.70;;;6.93;;
36351;SDS011;22382;44.768;17.206;2023-04-24T00:51:38;13.23;;;7.43;;
36351;SDS011;22382;44.768;17.206;2023-04-24T00:54:07;10.55;;;6.55;;
36351;SDS011;22382;44.768;17.206;2023-04-24T00:56:34;12.50;;;7.47;;
36351;SDS011;22382;44.768;17.206;2023-04-24T00:59:01;10.40;;;6.80;;
36351;SDS011;22382;44.768;17.206;2023-04-24T01:01:28;13.80;;;7.50;;
36351;SDS011;22382;44.768;17.206;2023-04-24T01:03:56;10.43;;;6.40;;
36351;SDS011;22382;44.768;17.206;2023-04-24T01:06:27;8.20;;;6.40;;
36351;SDS011;22382;44.768;17.206;2023-04-24T01:08:55;9.13;;;6.40;;
36351;SDS011;22382;44.768;17.206;2023-04-24T01:11:22;10.40;;;6.30;;
36351;SDS011;22382;44.768;17.206;2023-04-24T01:13:49;10.15;;;6.28;;
36351;SDS011;22382;44.768;17.206;2023-04-24T01:16:17;11.02;;;6.38;;
36351;SDS011;22382;44.768;17.206;2023-04-24T01:18:47;10.43;;;6.30;;
36351;SDS011;22382;44.768;17.206;2023-04-24T01:21:15;12.50;;;6.68;;
36351;SDS011;22382;44.768;17.206;2023-04-24T01:23:45;11.50;;;6.05;;
36351;SDS011;22382;44.768;17.206;2023-04-24T01:26:13;10.85;;;6.15;;
36351;SDS011;22382;44.768;17.206;2023-04-24T01:28:43;9.40;;;5.88;;
36351;SDS011;22382;44.768;17.206;2023-04-24T01:31:10;11.82;;;5.68;;
36351;SDS011;22382;44.768;17.206;2023-04-24T01:33:37;7.82;;;5.65;;
36351;SDS011;22382;44.768;17.206;2023-04-24T01:36:05;8.18;;;5.65;;
36351;SDS011;22382;44.768;17.206;2023-04-24T01:38:32;6.28;;;4.88;;
36351;SDS011;22382;44.768;17.206;2023-04-24T01:41:00;7.38;;;5.13;;
36351;SDS011;22382;44.768;17.206;2023-04-24T01:43:27;7.20;;;5.15;;
36351;SDS011;22382;44.768;17.206;2023-04-24T01:45:55;8.30;;;5.55;;
36351;SDS011;22382;44.768;17.206;2023-04-24T01:48:23;6.57;;;4.88;;
36351;SDS011;22382;44.768;17.206;2023-04-24T01:50:51;10.27;;;4.70;;
36351;SDS011;22382;44.768;17.206;2023-04-24T01:53:18;7.25;;;4.03;;
36351;SDS011;22382;44.768;17.206;2023-04-24T01:55:45;7.45;;;4.60;;
36351;SDS011;22382;44.768;17.206;2023-04-24T01:58:13;6.40;;;4.40;;
36351;SDS011;22382;44.768;17.206;2023-04-24T02:00:41;6.15;;;4.50;;
36351;SDS011;22382;44.768;17.206;2023-04-24T02:03:08;9.10;;;4.93;;
36351;SDS011;22382;44.768;17.206;2023-04-24T02:05:35;7.55;;;4.43;;
36351;SDS011;22382;44.768;17.206;2023-04-24T02:08:02;10.40;;;4.55;;
36351;SDS011;22382;44.768;17.206;2023-04-24T02:10:29;5.10;;;3.75;;
36351;SDS011;22382;44.768;17.206;2023-04-24T02:12:57;6.75;;;3.67;;
36351;SDS011;22382;44.768;17.206;2023-04-24T02:15:26;6.65;;;4.07;;
36351;SDS011;22382;44.768;17.206;2023-04-24T02:17:53;8.98;;;4.10;;
36351;SDS011;22382;44.768;17.206;2023-04-24T02:20:20;7.15;;;4.60;;
36351;SDS011;22382;44.768;17.206;2023-04-24T02:22:47;8.85;;;3.85;;
36351;SDS011;22382;44.768;17.206;2023-04-24T02:25:14;6.90;;;4.03;;
36351;SDS011;22382;44.768;17.206;2023-04-24T02:27:43;6.43;;;4.15;;
36351;SDS011;22382;44.768;17.206;2023-04-24T02:30:11;6.43;;;4.00;;
36351;SDS011;22382;44.768;17.206;2023-04-24T02:32:38;9.38;;;4.22;;
36351;SDS011;22382;44.768;17.206;2023-04-24T02:35:05;5.18;;;3.95;;
36351;SDS011;22382;44.768;17.206;2023-04-24T02:37:33;5.90;;;3.67;;
36351;SDS011;22382;44.768;17.206;2023-04-24T02:40:00;8.02;;;3.80;;
36351;SDS011;22382;44.768;17.206;2023-04-24T02:42:27;5.25;;;3.50;;
36351;SDS011;22382;44.768;17.206;2023-04-24T02:44:54;6.40;;;4.03;;
36351;SDS011;22382;44.768;17.206;2023-04-24T02:47:21;6.03;;;3.90;;
36351;SDS011;22382;44.768;17.206;2023-04-24T02:49:49;7.22;;;3.97;;
36351;SDS011;22382;44.768;17.206;2023-04-24T02:52:16;6.13;;;3.67;;
36351;SDS011;22382;44.768;17.206;2023-04-24T02:54:43;5.40;;;3.75;;
36351;SDS011;22382;44.768;17.206;2023-04-24T02:57:10;6.07;;;3.45;;
36351;SDS011;22382;44.768;17.206;2023-04-24T02:59:37;5.75;;;3.63;;
36351;SDS011;22382;44.768;17.206;2023-04-24T03:02:04;6.05;;;4.00;;
36351;SDS011;22382;44.768;17.206;2023-04-24T03:04:32;5.20;;;3.38;;
36351;SDS011;22382;44.768;17.206;2023-04-24T03:06:59;5.18;;;3.15;;
36351;SDS011;22382;44.768;17.206;2023-04-24T03:09:27;4.32;;;2.53;;
36351;SDS011;22382;44.768;17.206;2023-04-24T03:11:54;4.72;;;2.83;;
36351;SDS011;22382;44.768;17.206;2023-04-24T03:14:22;2.47;;;1.77;;
36351;SDS011;22382;44.768;17.206;2023-04-24T03:16:50;5.93;;;2.40;;
36351;SDS011;22382;44.768;17.206;2023-04-24T03:19:17;3.20;;;2.10;;
36351;SDS011;22382;44.768;17.206;2023-04-24T03:21:44;3.53;;;2.60;;
36351;SDS011;22382;44.768;17.206;2023-04-24T03:24:11;5.18;;;2.60;;
36351;SDS011;22382;44.768;17.206;2023-04-24T03:26:38;3.17;;;2.20;;
36351;SDS011;22382;44.768;17.206;2023-04-24T03:29:05;2.92;;;1.92;;
36351;SDS011;22382;44.768;17.206;2023-04-24T03:31:32;3.78;;;2.40;;
36351;SDS011;22382;44.768;17.206;2023-04-24T03:34:00;3.15;;;1.90;;
36351;SDS011;22382;44.768;17.206;2023-04-24T03:36:27;3.55;;;2.08;;
36351;SDS011;22382;44.768;17.206;2023-04-24T03:38:54;2.42;;;1.80;;
36351;SDS011;22382;44.768;17.206;2023-04-24T03:41:21;3.63;;;1.98;;
36351;SDS011;22382;44.768;17.206;2023-04-24T03:43:49;2.60;;;2.15;;
36351;SDS011;22382;44.768;17.206;2023-04-24T03:46:16;2.55;;;2.10;;
36351;SDS011;22382;44.768;17.206;2023-04-24T03:48:43;2.17;;;1.77;;
36351;SDS011;22382;44.768;17.206;2023-04-24T03:51:10;4.18;;;2.22;;
36351;SDS011;22382;44.768;17.206;2023-04-24T03:53:38;4.05;;;2.15;;
36351;SDS011;22382;44.768;17.206;2023-04-24T03:56:05;3.75;;;2.10;;
36351;SDS011;22382;44.768;17.206;2023-04-24T03:58:32;3.97;;;2.20;;
36351;SDS011;22382;44.768;17.206;2023-04-24T04:00:59;3.53;;;2.25;;
36351;SDS011;22382;44.768;17.206;2023-04-24T04:03:27;3.95;;;2.25;;
36351;SDS011;22382;44.768;17.206;2023-04-24T04:05:54;3.25;;;2.10;;
36351;SDS011;22382;44.768;17.206;2023-04-24T04:08:21;5.00;;;3.22;;
36351;SDS011;22382;44.768;17.206;2023-04-24T04:10:49;5.55;;;3.97;;
36351;SDS011;22382;44.768;17.206;2023-04-24T04:13:16;4.00;;;2.70;;
36351;SDS011;22382;44.768;17.206;2023-04-24T04:15:43;6.00;;;2.70;;
36351;SDS011;22382;44.768;17.206;2023-04-24T04:18:10;4.82;;;2.75;;
36351;SDS011;22382;44.768;17.206;2023-04-24T04:20:38;6.78;;;3.03;;
36351;SDS011;22382;44.768;17.206;2023-04-24T04:23:05;4.63;;;2.70;;
36351;SDS011;22382;44.768;17.206;2023-04-24T04:25:32;5.15;;;3.67;;
36351;SDS011;22382;44.768;17.206;2023-04-24T04:27:59;6.07;;;3.10;;
36351;SDS011;22382;44.768;17.206;2023-04-24T04:30:28;4.80;;;3.30;;
36351;SDS011;22382;44.768;17.206;2023-04-24T04:32:58;4.43;;;3.05;;
36351;SDS011;22382;44.768;17.206;2023-04-24T04:35:26;7.35;;;3.58;;
36351;SDS011;22382;44.768;17.206;2023-04-24T04:37:54;7.93;;;5.03;;
36351;SDS011;22382;44.768;17.206;2023-04-24T04:40:25;5.88;;;3.70;;
36351;SDS011;22382;44.768;17.206;2023-04-24T04:42:54;7.03;;;3.75;;
36351;SDS011;22382;44.768;17.206;2023-04-24T04:45:22;5.85;;;3.28;;
36351;SDS011;22382;44.768;17.206;2023-04-24T04:47:50;6.68;;;4.00;;
36351;SDS011;22382;44.768;17.206;2023-04-24T04:50:18;5.88;;;4.20;;
36351;SDS011;22382;44.768;17.206;2023-04-24T04:52:46;11.80;;;6.05;;
36351;SDS011;22382;44.768;17.206;2023-04-24T04:55:13;11.35;;;5.97;;
36351;SDS011;22382;44.768;17.206;2023-04-24T04:57:41;8.55;;;5.75;;
36351;SDS011;22382;44.768;17.206;2023-04-24T05:00:08;12.68;;;6.38;;
36351;SDS011;22382;44.768;17.206;2023-04-24T05:02:37;8.80;;;5.55;;
36351;SDS011;22382;44.768;17.206;2023-04-24T05:05:06;7.65;;;4.72;;
36351;SDS011;22382;44.768;17.206;2023-04-24T05:07:34;8.38;;;5.90;;
36351;SDS011;22382;44.768;17.206;2023-04-24T05:10:01;11.70;;;8.23;;
36351;SDS011;22382;44.768;17.206;2023-04-24T05:12:29;9.15;;;6.80;;
36351;SDS011;22382;44.768;17.206;2023-04-24T05:14:56;15.10;;;8.55;;
36351;SDS011;22382;44.768;17.206;2023-04-24T05:17:25;10.98;;;7.28;;
36351;SDS011;22382;44.768;17.206;2023-04-24T05:19:52;10.75;;;6.43;;
36351;SDS011;22382;44.768;17.206;2023-04-24T05:22:19;8.85;;;5.97;;
36351;SDS011;22382;44.768;17.206;2023-04-24T05:24:47;9.00;;;5.90;;
36351;SDS011;22382;44.768;17.206;2023-04-24T05:27:14;9.05;;;6.15;;
36351;SDS011;22382;44.768;17.206;2023-04-24T05:29:42;11.63;;;7.30;;
36351;SDS011;22382;44.768;17.206;2023-04-24T05:32:10;11.40;;;7.55;;
36351;SDS011;22382;44.768;17.206;2023-04-24T05:34:37;12.18;;;8.18;;
36351;SDS011;22382;44.768;17.206;2023-04-24T05:37:04;12.27;;;8.00;;
36351;SDS011;22382;44.768;17.206;2023-04-24T05:39:34;11.40;;;7.20;;
36351;SDS011;22382;44.768;17.206;2023-04-24T05:42:02;14.00;;;7.50;;
36351;SDS011;22382;44.768;17.206;2023-04-24T05:44:30;23.73;;;8.52;;
36351;SDS011;22382;44.768;17.206;2023-04-24T05:46:58;12.05;;;7.25;;
36351;SDS011;22382;44.768;17.206;2023-04-24T05:49:25;24.65;;;13.40;;
36351;SDS011;22382;44.768;17.206;2023-04-24T05:51:52;20.88;;;13.25;;
36351;SDS011;22382;44.768;17.206;2023-04-24T05:54:20;11.80;;;6.93;;
36351;SDS011;22382;44.768;17.206;2023-04-24T05:56:47;12.20;;;6.82;;
36351;SDS011;22382;44.768;17.206;2023-04-24T05:59:16;53.10;;;33.60;;
36351;SDS011;22382;44.768;17.206;2023-04-24T06:01:43;17.05;;;8.85;;
36351;SDS011;22382;44.768;17.206;2023-04-24T06:04:11;14.00;;;8.40;;
36351;SDS011;22382;44.768;17.206;2023-04-24T06:06:40;15.82;;;10.68;;
36351;SDS011;22382;44.768;17.206;2023-04-24T06:09:07;11.73;;;8.48;;
36351;SDS011;22382;44.768;17.206;2023-04-24T06:11:34;14.68;;;9.02;;
36351;SDS011;22382;44.768;17.206;2023-04-24T06:14:02;11.93;;;8.27;;
36351;SDS011;22382;44.768;17.206;2023-04-24T06:16:29;10.30;;;8.13;;
36351;SDS011;22382;44.768;17.206;2023-04-24T06:18:57;12.98;;;9.20;;
36351;SDS011;22382;44.768;17.206;2023-04-24T06:21:24;18.10;;;12.20;;
36351;SDS011;22382;44.768;17.206;2023-04-24T06:23:51;16.33;;;11.30;;
36351;SDS011;22382;44.768;17.206;2023-04-24T06:26:19;18.02;;;10.85;;
36351;SDS011;22382;44.768;17.206;2023-04-24T06:28:46;14.15;;;9.48;;
36351;SDS011;22382;44.768;17.206;2023-04-24T06:31:13;16.60;;;10.80;;
36351;SDS011;22382;44.768;17.206;2023-04-24T06:33:40;12.88;;;10.05;;
36351;SDS011;22382;44.768;17.206;2023-04-24T06:36:07;13.02;;;9.90;;
36351;SDS011;22382;44.768;17.206;2023-04-24T06:38:34;14.15;;;9.88;;
36351;SDS011;22382;44.768;17.206;2023-04-24T06:41:02;13.32;;;9.48;;
36351;SDS011;22382;44.768;17.206;2023-04-24T06:43:31;13.40;;;10.07;;
36351;SDS011;22382;44.768;17.206;2023-04-24T06:45:59;17.52;;;10.48;;
36351;SDS011;22382;44.768;17.206;2023-04-24T06:48:26;12.32;;;9.60;;
36351;SDS011;22382;44.768;17.206;2023-04-24T06:50:54;14.57;;;10.23;;
36351;SDS011;22382;44.768;17.206;2023-04-24T06:53:21;20.85;;;11.32;;
36351;SDS011;22382;44.768;17.206;2023-04-24T06:55:48;14.20;;;10.32;;
36351;SDS011;22382;44.768;17.206;2023-04-24T06:58:15;15.05;;;10.05;;
36351;SDS011;22382;44.768;17.206;2023-04-24T07:00:43;13.93;;;11.02;;
36351;SDS011;22382;44.768;17.206;2023-04-24T07:03:10;17.02;;;12.25;;
36351;SDS011;22382;44.768;17.206;2023-04-24T07:05:37;20.08;;;12.07;;
36351;SDS011;22382;44.768;17.206;2023-04-24T07:08:04;15.32;;;10.75;;
36351;SDS011;22382;44.768;17.206;2023-04-24T07:10:33;16.58;;;10.65;;
36351;SDS011;22382;44.768;17.206;2023-04-24T07:13:00;17.50;;;10.80;;
36351;SDS011;22382;44.768;17.206;2023-04-24T07:15:27;15.18;;;10.07;;
36351;SDS011;22382;44.768;17.206;2023-04-24T07:17:55;14.88;;;11.00;;
36351;SDS011;22382;44.768;17.206;2023-04-24T07:20:22;11.98;;;10.00;;
36351;SDS011;22382;44.768;17.206;2023-04-24T07:22:49;14.82;;;10.98;;
36351;SDS011;22382;44.768;17.206;2023-04-24T07:25:18;14.25;;;10.40;;
36351;SDS011;22382;44.768;17.206;2023-04-24T07:27:45;16.33;;;11.30;;
36351;SDS011;22382;44.768;17.206;2023-04-24T07:30:12;14.45;;;10.65;;
36351;SDS011;22382;44.768;17.206;2023-04-24T07:32:39;13.60;;;9.55;;
36351;SDS011;22382;44.768;17.206;2023-04-24T07:35:07;11.35;;;7.85;;
36351;SDS011;22382;44.768;17.206;2023-04-24T07:37:37;13.35;;;8.57;;
36351;SDS011;22382;44.768;17.206;2023-04-24T07:40:05;11.07;;;7.88;;
36351;SDS011;22382;44.768;17.206;2023-04-24T07:42:32;10.43;;;7.72;;
36351;SDS011;22382;44.768;17.206;2023-04-24T07:45:01;13.80;;;9.13;;
36351;SDS011;22382;44.768;17.206;2023-04-24T07:47:28;12.40;;;8.65;;
36351;SDS011;22382;44.768;17.206;2023-04-24T07:49:55;13.32;;;8.30;;
36351;SDS011;22382;44.768;17.206;2023-04-24T07:52:23;10.25;;;6.50;;
36351;SDS011;22382;44.768;17.206;2023-04-24T07:54:50;18.00;;;12.15;;
36351;SDS011;22382;44.768;17.206;2023-04-24T07:57:25;21.25;;;12.63;;
36351;SDS011;22382;44.768;17.206;2023-04-24T07:59:52;18.25;;;12.75;;
36351;SDS011;22382;44.768;17.206;2023-04-24T08:02:19;19.55;;;12.75;;
36351;SDS011;22382;44.768;17.206;2023-04-24T08:04:52;16.92;;;12.50;;
36351;SDS011;22382;44.768;17.206;2023-04-24T08:09:52;15.30;;;12.32;;
36351;SDS011;22382;44.768;17.206;2023-04-24T08:12:19;17.25;;;11.93;;
36351;SDS011;22382;44.768;17.206;2023-04-24T08:14:46;17.60;;;11.70;;
36351;SDS011;22382;44.768;17.206;2023-04-24T08:17:14;20.98;;;13.25;;
36351;SDS011;22382;44.768;17.206;2023-04-24T08:19:41;20.80;;;14.48;;
36351;SDS011;22382;44.768;17.206;2023-04-24T08:22:14;22.08;;;15.20;;
36351;SDS011;22382;44.768;17.206;2023-04-24T08:24:41;23.55;;;16.25;;
36351;SDS011;22382;44.768;17.206;2023-04-24T08:27:10;26.05;;;18.33;;
36351;SDS011;22382;44.768;17.206;2023-04-24T08:29:37;29.55;;;17.17;;
36351;SDS011;22382;44.768;17.206;2023-04-24T08:32:04;22.17;;;15.20;;
36351;SDS011;22382;44.768;17.206;2023-04-24T08:34:32;20.52;;;14.88;;
36351;SDS011;22382;44.768;17.206;2023-04-24T08:36:59;24.20;;;16.02;;
36351;SDS011;22382;44.768;17.206;2023-04-24T08:39:26;20.70;;;15.75;;
36351;SDS011;22382;44.768;17.206;2023-04-24T08:41:54;23.23;;;15.70;;
36351;SDS011;22382;44.768;17.206;2023-04-24T08:44:22;20.08;;;14.07;;
36351;SDS011;22382;44.768;17.206;2023-04-24T08:46:49;18.98;;;14.27;;
36351;SDS011;22382;44.768;17.206;2023-04-24T08:49:17;24.10;;;17.88;;
36351;SDS011;22382;44.768;17.206;2023-04-24T08:51:46;22.00;;;15.32;;
36351;SDS011;22382;44.768;17.206;2023-04-24T08:54:14;22.80;;;14.90;;
36351;SDS011;22382;44.768;17.206;2023-04-24T08:56:43;22.25;;;15.25;;
36351;SDS011;22382;44.768;17.206;2023-04-24T08:59:11;20.42;;;14.63;;
36351;SDS011;22382;44.768;17.206;2023-04-24T09:01:39;18.75;;;14.30;;
36351;SDS011;22382;44.768;17.206;2023-04-24T09:04:08;19.45;;;13.88;;
36351;SDS011;22382;44.768;17.206;2023-04-24T09:06:41;22.65;;;14.93;;
36351;SDS011;22382;44.768;17.206;2023-04-24T09:09:09;16.75;;;13.15;;
36351;SDS011;22382;44.768;17.206;2023-04-24T09:11:38;24.85;;;13.57;;
36351;SDS011;22382;44.768;17.206;2023-04-24T09:14:06;19.85;;;13.45;;
36351;SDS011;22382;44.768;17.206;2023-04-24T09:16:34;17.92;;;12.13;;
36351;SDS011;22382;44.768;17.206;2023-04-24T09:19:02;18.15;;;12.40;;
36351;SDS011;22382;44.768;17.206;2023-04-24T09:21:33;17.83;;;11.88;;
36351;SDS011;22382;44.768;17.206;2023-04-24T09:24:03;16.08;;;10.90;;
36351;SDS011;22382;44.768;17.206;2023-04-24T09:26:36;17.13;;;11.65;;
36351;SDS011;22382;44.768;17.206;2023-04-24T09:29:03;16.40;;;12.53;;
36351;SDS011;22382;44.768;17.206;2023-04-24T09:31:31;21.98;;;15.18;;
36351;SDS011;22382;44.768;17.206;2023-04-24T09:34:02;17.13;;;13.05;;
36351;SDS011;22382;44.768;17.206;2023-04-24T09:36:34;20.55;;;15.57;;
36351;SDS011;22382;44.768;17.206;2023-04-24T09:39:06;21.03;;;14.00;;
36351;SDS011;22382;44.768;17.206;2023-04-24T09:41:44;18.35;;;13.90;;
36351;SDS011;22382;44.768;17.206;2023-04-24T09:44:20;16.73;;;12.55;;
36351;SDS011;22382;44.768;17.206;2023-04-24T09:46:49;16.38;;;12.27;;
36351;SDS011;22382;44.768;17.206;2023-04-24T09:49:25;19.48;;;10.85;;
36351;SDS011;22382;44.768;17.206;2023-04-24T09:52:03;14.75;;;10.30;;
36351;SDS011;22382;44.768;17.206;2023-04-24T09:54:31;11.40;;;9.48;;
36351;SDS011;22382;44.768;17.206;2023-04-24T09:56:59;11.32;;;8.70;;
36351;SDS011;22382;44.768;17.206;2023-04-24T09:59:27;9.63;;;7.97;;
36351;SDS011;22382;44.768;17.206;2023-04-24T10:01:54;13.93;;;9.23;;
36351;SDS011;22382;44.768;17.206;2023-04-24T10:04:22;12.50;;;9.18;;
36351;SDS011;22382;44.768;17.206;2023-04-24T10:06:54;13.38;;;9.70;;
36351;SDS011;22382;44.768;17.206;2023-04-24T10:09:23;10.70;;;8.15;;
36351;SDS011;22382;44.768;17.206;2023-04-24T10:11:53;11.05;;;7.00;;
36351;SDS011;22382;44.768;17.206;2023-04-24T10:14:23;11.43;;;8.40;;
36351;SDS011;22382;44.768;17.206;2023-04-24T10:16:53;11.23;;;7.75;;
36351;SDS011;22382;44.768;17.206;2023-04-24T10:19:21;9.88;;;8.05;;
36351;SDS011;22382;44.768;17.206;2023-04-24T10:21:52;11.65;;;8.48;;
36351;SDS011;22382;44.768;17.206;2023-04-24T10:24:22;9.02;;;7.15;;
36351;SDS011;22382;44.768;17.206;2023-04-24T10:26:49;15.07;;;8.40;;
36351;SDS011;22382;44.768;17.206;2023-04-24T10:29:19;14.30;;;8.77;;
36351;SDS011;22382;44.768;17.206;2023-04-24T10:31:47;12.05;;;7.43;;
36351;SDS011;22382;44.768;17.206;2023-04-24T10:34:15;12.20;;;7.85;;
36351;SDS011;22382;44.768;17.206;2023-04-24T10:36:48;11.35;;;7.72;;
36351;SDS011;22382;44.768;17.206;2023-04-24T10:39:21;9.15;;;6.63;;
36351;SDS011;22382;44.768;17.206;2023-04-24T10:41:53;12.85;;;7.78;;
36351;SDS011;22382;44.768;17.206;2023-04-24T10:44:24;9.90;;;7.80;;
36351;SDS011;22382;44.768;17.206;2023-04-24T10:46:54;9.73;;;6.57;;
36351;SDS011;22382;44.768;17.206;2023-04-24T10:49:29;12.33;;;7.63;;
36351;SDS011;22382;44.768;17.206;2023-04-24T10:52:01;12.88;;;7.30;;
36351;SDS011;22382;44.768;17.206;2023-04-24T10:54:36;11.75;;;6.65;;
36351;SDS011;22382;44.768;17.206;2023-04-24T10:59:47;10.32;;;6.63;;
36351;SDS011;22382;44.768;17.206;2023-04-24T11:02:38;11.32;;;6.70;;
36351;SDS011;22382;44.768;17.206;2023-04-24T11:05:10;10.30;;;6.90;;
36351;SDS011;22382;44.768;17.206;2023-04-24T11:08:25;12.75;;;7.22;;
36351;SDS011;22382;44.768;17.206;2023-04-24T11:10:39;13.77;;;7.53;;
36351;SDS011;22382;44.768;17.206;2023-04-24T11:13:07;10.77;;;6.47;;
36351;SDS011;22382;44.768;17.206;2023-04-24T11:15:36;9.27;;;5.45;;
36351;SDS011;22382;44.768;17.206;2023-04-24T11:18:04;9.68;;;5.70;;
36351;SDS011;22382;44.768;17.206;2023-04-24T11:20:31;7.57;;;5.25;;
36351;SDS011;22382;44.768;17.206;2023-04-24T11:23:00;7.97;;;4.50;;
36351;SDS011;22382;44.768;17.206;2023-04-24T11:25:30;9.52;;;6.13;;
36351;SDS011;22382;44.768;17.206;2023-04-24T11:28:05;7.28;;;5.50;;
36351;SDS011;22382;44.768;17.206;2023-04-24T11:30:32;11.95;;;6.65;;
36351;SDS011;22382;44.768;17.206;2023-04-24T11:33:03;9.48;;;6.57;;
36351;SDS011;22382;44.768;17.206;2023-04-24T11:35:35;10.40;;;7.10;;
36351;SDS011;22382;44.768;17.206;2023-04-24T11:38:07;9.63;;;6.97;;
36351;SDS011;22382;44.768;17.206;2023-04-24T11:40:37;12.15;;;7.95;;
36351;SDS011;22382;44.768;17.206;2023-04-24T11:43:06;16.08;;;9.05;;
36351;SDS011;22382;44.768;17.206;2023-04-24T11:45:33;16.27;;;9.57;;
36351;SDS011;22382;44.768;17.206;2023-04-24T11:48:02;13.38;;;9.60;;
36351;SDS011;22382;44.768;17.206;2023-04-24T11:50:30;19.95;;;10.23;;
36351;SDS011;22382;44.768;17.206;2023-04-24T11:52:57;15.15;;;10.63;;
36351;SDS011;22382;44.768;17.206;2023-04-24T11:55:27;15.75;;;10.10;;
36351;SDS011;22382;44.768;17.206;2023-04-24T11:57:56;15.52;;;10.57;;
36351;SDS011;22382;44.768;17.206;2023-04-24T12:00:26;13.38;;;10.80;;
36351;SDS011;22382;44.768;17.206;2023-04-24T12:05:35;17.40;;;11.35;;
36351;SDS011;22382;44.768;17.206;2023-04-24T12:08:03;17.95;;;11.10;;
36351;SDS011;22382;44.768;17.206;2023-04-24T12:10:32;17.70;;;11.95;;
36351;SDS011;22382;44.768;17.206;2023-04-24T12:13:00;17.98;;;12.02;;
36351;SDS011;22382;44.768;17.206;2023-04-24T12:15:27;16.95;;;11.57;;
36351;SDS011;22382;44.768;17.206;2023-04-24T12:17:55;15.55;;;10.57;;
36351;SDS011;22382;44.768;17.206;2023-04-24T12:20:27;16.85;;;10.60;;
36351;SDS011;22382;44.768;17.206;2023-04-24T12:22:56;20.55;;;10.85;;
36351;SDS011;22382;44.768;17.206;2023-04-24T12:25:26;15.70;;;11.00;;
36351;SDS011;22382;44.768;17.206;2023-04-24T12:30:38;15.75;;;11.00;;
36351;SDS011;22382;44.768;17.206;2023-04-24T12:33:19;14.88;;;8.60;;
36351;SDS011;22382;44.768;17.206;2023-04-24T12:35:48;10.50;;;7.72;;
36351;SDS011;22382;44.768;17.206;2023-04-24T12:38:23;10.90;;;8.32;;
36351;SDS011;22382;44.768;17.206;2023-04-24T12:41:05;8.82;;;6.93;;
36351;SDS011;22382;44.768;17.206;2023-04-24T12:43:36;12.82;;;9.40;;
36351;SDS011;22382;44.768;17.206;2023-04-24T12:46:04;13.52;;;8.75;;
36351;SDS011;22382;44.768;17.206;2023-04-24T12:48:32;12.32;;;8.05;;
36351;SDS011;22382;44.768;17.206;2023-04-24T12:50:59;11.98;;;7.30;;
36351;SDS011;22382;44.768;17.206;2023-04-24T12:53:29;10.70;;;7.82;;
36351;SDS011;22382;44.768;17.206;2023-04-24T12:55:57;10.80;;;7.53;;
36351;SDS011;22382;44.768;17.206;2023-04-24T12:58:25;9.52;;;7.00;;
36351;SDS011;22382;44.768;17.206;2023-04-24T13:00:52;12.23;;;7.70;;
36351;SDS011;22382;44.768;17.206;2023-04-24T13:03:19;9.32;;;6.88;;
36351;SDS011;22382;44.768;17.206;2023-04-24T13:05:49;10.15;;;7.60;;
36351;SDS011;22382;44.768;17.206;2023-04-24T13:08:16;13.23;;;7.82;;
36351;SDS011;22382;44.768;17.206;2023-04-24T13:10:43;12.23;;;8.10;;
36351;SDS011;22382;44.768;17.206;2023-04-24T13:13:10;9.70;;;6.80;;
36351;SDS011;22382;44.768;17.206;2023-04-24T13:15:37;10.80;;;7.13;;
36351;SDS011;22382;44.768;17.206;2023-04-24T13:18:05;12.52;;;7.15;;
36351;SDS011;22382;44.768;17.206;2023-04-24T13:20:33;10.35;;;8.05;;
36351;SDS011;22382;44.768;17.206;2023-04-24T13:23:01;10.30;;;6.82;;
36351;SDS011;22382;44.768;17.206;2023-04-24T13:25:35;8.98;;;6.45;;
36351;SDS011;22382;44.768;17.206;2023-04-24T13:28:05;8.55;;;6.50;;
36351;SDS011;22382;44.768;17.206;2023-04-24T13:30:33;8.55;;;5.82;;
36351;SDS011;22382;44.768;17.206;2023-04-24T13:33:00;9.95;;;6.82;;
36351;SDS011;22382;44.768;17.206;2023-04-24T13:35:28;8.65;;;6.90;;
36351;SDS011;22382;44.768;17.206;2023-04-24T13:37:55;8.77;;;6.68;;
36351;SDS011;22382;44.768;17.206;2023-04-24T13:40:22;14.10;;;6.75;;
36351;SDS011;22382;44.768;17.206;2023-04-24T13:42:50;10.15;;;7.03;;
36351;SDS011;22382;44.768;17.206;2023-04-24T13:45:17;9.90;;;6.60;;
36351;SDS011;22382;44.768;17.206;2023-04-24T13:47:50;8.55;;;6.05;;
36351;SDS011;22382;44.768;17.206;2023-04-24T13:50:20;9.07;;;6.30;;
36351;SDS011;22382;44.768;17.206;2023-04-24T13:52:47;10.65;;;7.22;;
36351;SDS011;22382;44.768;17.206;2023-04-24T13:55:16;13.95;;;8.23;;
36351;SDS011;22382;44.768;17.206;2023-04-24T13:57:43;15.70;;;10.02;;
36351;SDS011;22382;44.768;17.206;2023-04-24T14:00:10;10.55;;;8.10;;
36351;SDS011;22382;44.768;17.206;2023-04-24T14:02:39;12.15;;;9.88;;
36351;SDS011;22382;44.768;17.206;2023-04-24T14:05:07;18.92;;;12.57;;
36351;SDS011;22382;44.768;17.206;2023-04-24T14:07:38;13.15;;;9.60;;
36351;SDS011;22382;44.768;17.206;2023-04-24T14:10:05;17.05;;;9.48;;
36351;SDS011;22382;44.768;17.206;2023-04-24T14:12:33;13.82;;;9.13;;
36351;SDS011;22382;44.768;17.206;2023-04-24T14:15:00;16.00;;;9.60;;
36351;SDS011;22382;44.768;17.206;2023-04-24T14:17:28;15.50;;;10.77;;
36351;SDS011;22382;44.768;17.206;2023-04-24T14:19:55;11.90;;;7.47;;
36351;SDS011;22382;44.768;17.206;2023-04-24T14:22:23;10.65;;;6.78;;
36351;SDS011;22382;44.768;17.206;2023-04-24T14:24:50;9.88;;;6.80;;
36351;SDS011;22382;44.768;17.206;2023-04-24T14:27:17;11.93;;;7.30;;
36351;SDS011;22382;44.768;17.206;2023-04-24T14:29:44;11.73;;;7.07;;
36351;SDS011;22382;44.768;17.206;2023-04-24T14:32:11;12.73;;;8.05;;
36351;SDS011;22382;44.768;17.206;2023-04-24T14:34:41;7.50;;;5.85;;
36351;SDS011;22382;44.768;17.206;2023-04-24T14:37:08;11.15;;;7.00;;
36351;SDS011;22382;44.768;17.206;2023-04-24T14:39:35;10.20;;;6.95;;
36351;SDS011;22382;44.768;17.206;2023-04-24T14:42:03;13.50;;;8.63;;